Terminal Aerodrome Forecast
Issued by NWS Central Illinois

Home | Current Version | Previous Version | Text Only | Print | Product List | Glossary On
Versions: 1 2 3 4 5 6 7 8 9 10 11 12 13 14 15 16 17 18 19 20 21 22 23
000
FTUS43 KILX 191140
TAFSPI
TAF
KSPI 191140Z 1912/2012 00000KT 1/4SM FG VV002
     FM191400 VRB03KT 1SM BR BKN003
     FM191500 VRB03KT P6SM SCT008
     FM191900 24004KT P6SM SCT040=

USA.gov is the U.S. government's official web portal to all federal, state and local government web resources and services.